Time;durP1;ratioP1;P1;durP2;ratioP2;P2;SDS_P1;SDS_P2;PMS_P1;PMS_P2;Temp;Humidity;BMP_temperature;BMP_pressure;BME280_temperature;BME280_humidity;BME280_pressure;Samples;Min_cycle;Max_cycle;Signal;HPM_P1;HPM_P2
2022/01/18 00:01:24;;;;;;;28.57;5.20;;;;;;;;;;4997514;28;20113;-26
2022/01/18 00:03:50;;;;;;;15.27;5.85;;;;;;;;;;4996896;28;20042;-26
2022/01/18 00:06:16;;;;;;;22.75;4.45;;;;;;;;;;4997051;28;20041;-25
2022/01/18 00:08:42;;;;;;;10.68;3.90;;;;;;;;;;4996949;28;20042;-28
2022/01/18 00:11:09;;;;;;;22.00;5.88;;;;;;;;;;4997063;28;20018;-29
2022/01/18 00:18:31;;;;;;;24.98;5.10;;;;;;;;;;4997132;28;20371;-25
2022/01/18 00:23:33;;;;;;;18.77;4.65;;;;;;;;;;4996726;28;20046;-27
2022/01/18 00:26:00;;;;;;;22.48;4.95;;;;;;;;;;4996726;28;20065;-31
2022/01/18 00:28:27;;;;;;;21.30;5.13;;;;;;;;;;4996447;28;20072;-27
2022/01/18 00:33:54;;;;;;;20.73;4.57;;;;;;;;;;4996550;28;20038;-26
2022/01/18 00:39:07;;;;;;;22.52;5.03;;;;;;;;;;4996460;28;20050;-25
2022/01/18 00:41:33;;;;;;;18.77;4.15;;;;;;;;;;4996909;28;20108;-25
2022/01/18 00:44:00;;;;;;;16.67;4.22;;;;;;;;;;4996294;28;20042;-26
2022/01/18 00:46:26;;;;;;;18.15;4.25;;;;;;;;;;4996312;28;20023;-27
2022/01/18 00:48:55;;;;;;;17.95;4.38;;;;;;;;;;4997201;28;20053;-26
2022/01/18 00:51:22;;;;;;;12.35;4.57;;;;;;;;;;4996217;28;20050;-26
2022/01/18 00:53:48;;;;;;;11.68;3.67;;;;;;;;;;4996386;28;20493;-26
2022/01/18 00:56:22;;;;;;;13.93;3.72;;;;;;;;;;4996112;28;20026;-28
2022/01/18 00:58:49;;;;;;;15.60;4.18;;;;;;;;;;4996436;28;20361;-25
2022/01/18 01:01:16;;;;;;;16.02;4.68;;;;;;;;;;4996282;28;20037;-25
2022/01/18 01:03:43;;;;;;;10.32;5.40;;;;;;;;;;4994794;28;20073;-26
2022/01/18 01:06:10;;;;;;;20.85;3.90;;;;;;;;;;4995957;28;20074;-30
2022/01/18 01:08:36;;;;;;;14.23;4.10;;;;;;;;;;4995850;28;20030;-24
2022/01/18 01:11:07;;;;;;;12.38;4.35;;;;;;;;;;4995853;28;20027;-25
2022/01/18 01:13:33;;;;;;;18.57;4.70;;;;;;;;;;4996077;28;20484;-26
2022/01/18 01:16:21;;;;;;;14.32;5.10;;;;;;;;;;4994854;28;20362;-26
2022/01/18 01:46:26;;;;;;;17.67;3.83;;;;;;;;;;4995403;28;20031;-25
2022/01/18 01:48:55;;;;;;;20.10;4.63;;;;;;;;;;4995262;28;20104;-30
2022/01/18 01:51:29;;;;;;;10.00;3.72;;;;;;;;;;4994607;28;20061;-27
2022/01/18 01:53:55;;;;;;;18.65;5.18;;;;;;;;;;4995264;28;20034;-26
2022/01/18 01:56:21;;;;;;;8.65;4.43;;;;;;;;;;4995500;28;20026;-24
2022/01/18 01:58:48;;;;;;;19.80;3.85;;;;;;;;;;4995465;28;20034;-24
2022/01/18 02:01:14;;;;;;;19.20;4.00;;;;;;;;;;4995354;28;20511;-25
2022/01/18 02:03:40;;;;;;;11.23;3.70;;;;;;;;;;4994009;28;20042;-25
2022/01/18 02:06:06;;;;;;;16.23;4.13;;;;;;;;;;4995038;28;20042;-26
2022/01/18 02:08:32;;;;;;;15.25;4.32;;;;;;;;;;4995180;28;20038;-25
2022/01/18 02:10:59;;;;;;;21.42;4.45;;;;;;;;;;4994815;28;20019;-24
2022/01/18 02:13:25;;;;;;;21.77;5.88;;;;;;;;;;4994891;28;20121;-24
2022/01/18 02:23:56;;;;;;;12.93;5.07;;;;;;;;;;4995126;28;20109;-27
2022/01/18 02:26:23;;;;;;;13.68;4.50;;;;;;;;;;4994849;28;20343;-24
2022/01/18 02:28:49;;;;;;;12.00;3.58;;;;;;;;;;4994776;28;20113;-29
2022/01/18 02:31:15;;;;;;;18.90;4.30;;;;;;;;;;4994814;28;20109;-25
2022/01/18 02:33:41;;;;;;;11.80;4.72;;;;;;;;;;4994802;28;20102;-24
2022/01/18 02:36:09;;;;;;;14.43;4.30;;;;;;;;;;4995066;28;20030;-28
2022/01/18 02:38:35;;;;;;;14.63;4.78;;;;;;;;;;4994775;28;20042;-30
2022/01/18 02:41:01;;;;;;;9.50;3.55;;;;;;;;;;4993772;28;20034;-26
2022/01/18 02:43:46;;;;;;;15.65;4.72;;;;;;;;;;4993763;28;20030;-25
2022/01/18 02:46:12;;;;;;;7.80;4.57;;;;;;;;;;4994997;28;20476;-25
2022/01/18 02:48:39;;;;;;;7.85;3.50;;;;;;;;;;4994586;28;20045;-24
2022/01/18 02:51:05;;;;;;;13.68;4.20;;;;;;;;;;4994629;28;20030;-26
2022/01/18 02:53:32;;;;;;;9.60;3.92;;;;;;;;;;4993567;28;20207;-34
2022/01/18 02:55:59;;;;;;;10.38;3.92;;;;;;;;;;4994650;28;20022;-26
2022/01/18 02:58:32;;;;;;;14.90;4.90;;;;;;;;;;4994879;28;20034;-28
2022/01/18 03:03:32;;;;;;;12.23;3.58;;;;;;;;;;4996334;28;20054;-27
2022/01/18 03:06:00;;;;;;;11.80;4.35;;;;;;;;;;4998385;28;20402;-30
2022/01/18 03:08:27;;;;;;;10.10;5.07;;;;;;;;;;4998205;28;20082;-25
2022/01/18 03:10:53;;;;;;;9.77;3.42;;;;;;;;;;4997958;28;20057;-29
2022/01/18 03:13:20;;;;;;;12.10;3.92;;;;;;;;;;4997860;28;20358;-24
2022/01/18 03:15:46;;;;;;;11.40;5.75;;;;;;;;;;4997826;28;20040;-27
2022/01/18 03:18:13;;;;;;;9.05;3.60;;;;;;;;;;4997734;28;20034;-32
2022/01/18 03:20:39;;;;;;;7.18;2.63;;;;;;;;;;4996799;28;20034;-31
2022/01/18 03:23:11;;;;;;;13.93;3.63;;;;;;;;;;4996716;28;20034;-28
2022/01/18 03:25:52;;;;;;;;;;;;;;;;;;4998487;28;20054;-24
2022/01/18 03:28:18;;;;;;;7.07;3.42;;;;;;;;;;4998468;28;19913;-27
2022/01/18 03:30:47;;;;;;;14.07;3.60;;;;;;;;;;4997608;28;20022;-26
2022/01/18 03:33:17;;;;;;;10.05;3.85;;;;;;;;;;4997492;28;20143;-25
2022/01/18 03:35:44;;;;;;;13.32;4.68;;;;;;;;;;4997487;28;20109;-26
2022/01/18 03:38:11;;;;;;;13.13;4.50;;;;;;;;;;4997456;28;20088;-25
2022/01/18 03:40:37;;;;;;;14.27;4.25;;;;;;;;;;4997691;28;20045;-25
2022/01/18 03:43:06;;;;;;;10.73;3.75;;;;;;;;;;4997547;28;20054;-28
2022/01/18 03:45:40;;;;;;;9.13;3.22;;;;;;;;;;4997639;28;20034;-26
2022/01/18 03:48:09;;;;;;;7.30;3.50;;;;;;;;;;4997545;28;20034;-27
2022/01/18 03:50:35;;;;;;;17.40;4.43;;;;;;;;;;4997302;28;20027;-25
2022/01/18 03:53:01;;;;;;;12.75;3.00;;;;;;;;;;4997272;28;20511;-32
2022/01/18 03:55:28;;;;;;;10.18;3.40;;;;;;;;;;4997253;28;20045;-31
2022/01/18 03:57:55;;;;;;;9.85;4.13;;;;;;;;;;4997257;28;20413;-26
2022/01/18 04:00:22;;;;;;;13.80;4.53;;;;;;;;;;4997178;28;20469;-25
2022/01/18 04:02:49;;;;;;;13.75;3.90;;;;;;;;;;4997077;28;20037;-29
2022/01/18 04:05:15;;;;;;;11.55;3.70;;;;;;;;;;4996938;28;20050;-29
2022/01/18 04:07:42;;;;;;;11.30;3.40;;;;;;;;;;4996889;28;20049;-26
2022/01/18 04:10:09;;;;;;;13.30;3.95;;;;;;;;;;4996544;28;20027;-26
2022/01/18 04:12:36;;;;;;;12.45;5.45;;;;;;;;;;4997002;28;20030;-27
2022/01/18 04:15:07;;;;;;;10.32;3.67;;;;;;;;;;4996061;28;20046;-27
2022/01/18 04:28:31;;;;;;;12.70;3.50;;;;;;;;;;4997438;28;20026;-29
2022/01/18 04:30:57;;;;;;;10.27;3.45;;;;;;;;;;4996508;28;20030;-25
2022/01/18 04:33:24;;;;;;;15.68;4.13;;;;;;;;;;4996399;28;20097;-25
2022/01/18 04:35:50;;;;;;;10.57;3.20;;;;;;;;;;4995507;28;20465;-24
2022/01/18 04:38:16;;;;;;;9.75;3.80;;;;;;;;;;4996587;28;20068;-25
2022/01/18 04:40:45;;;;;;;11.30;2.92;;;;;;;;;;4995370;28;20049;-26
2022/01/18 04:48:34;;;;;;;7.65;4.72;;;;;;;;;;4996502;28;20080;-24
2022/01/18 04:51:03;;;;;;;11.38;3.92;;;;;;;;;;4996418;28;20084;-26
2022/01/18 04:53:31;;;;;;;5.32;3.42;;;;;;;;;;4996236;28;20105;-25
2022/01/18 04:56:01;;;;;;;7.28;2.95;;;;;;;;;;4995871;28;20046;-25
2022/01/18 04:58:28;;;;;;;12.02;3.42;;;;;;;;;;4995899;28;20041;-28
2022/01/18 05:00:56;;;;;;;8.02;3.00;;;;;;;;;;4994880;28;20084;-24
2022/01/18 05:03:22;;;;;;;6.53;3.58;;;;;;;;;;4995561;28;20391;-29
2022/01/18 05:05:49;;;;;;;9.07;3.45;;;;;;;;;;4995733;28;20335;-26
2022/01/18 05:08:16;;;;;;;5.55;2.65;;;;;;;;;;4995977;28;20560;-24
2022/01/18 05:10:44;;;;;;;6.68;2.75;;;;;;;;;;4995611;28;20042;-28
2022/01/18 05:13:20;;;;;;;9.70;3.22;;;;;;;;;;4995472;28;20454;-27
2022/01/18 05:15:58;;;;;;;10.27;4.53;;;;;;;;;;4995890;28;20197;-24
2022/01/18 05:23:20;;;;;;;7.30;3.47;;;;;;;;;;4995342;28;20109;-30
2022/01/18 05:25:46;;;;;;;8.07;3.97;;;;;;;;;;4995679;28;20057;-26
2022/01/18 05:28:13;;;;;;;5.30;2.90;;;;;;;;;;4995570;28;20042;-26
2022/01/18 05:30:40;;;;;;;7.60;3.30;;;;;;;;;;4995574;28;20418;-24
2022/01/18 05:33:06;;;;;;;20.88;7.38;;;;;;;;;;4995177;28;20046;-25
2022/01/18 05:35:33;;;;;;;14.13;5.20;;;;;;;;;;4995355;28;20026;-26
2022/01/18 05:37:59;;;;;;;7.45;3.63;;;;;;;;;;4995279;28;20121;-25
2022/01/18 05:40:26;;;;;;;12.60;4.25;;;;;;;;;;4995269;28;20048;-27
2022/01/18 05:42:52;;;;;;;5.07;2.95;;;;;;;;;;4995230;28;20022;-29
2022/01/18 05:45:18;;;;;;;9.25;3.00;;;;;;;;;;4994356;28;20062;-25
2022/01/18 05:47:45;;;;;;;8.32;4.13;;;;;;;;;;4995211;28;20398;-28
2022/01/18 05:50:12;;;;;;;10.13;3.50;;;;;;;;;;4995476;28;20031;-29
2022/01/18 05:52:39;;;;;;;7.75;2.80;;;;;;;;;;4995230;28;20022;-26
2022/01/18 05:55:06;;;;;;;14.32;3.78;;;;;;;;;;4995458;28;20035;-27
2022/01/18 05:57:32;;;;;;;6.90;2.78;;;;;;;;;;4995094;28;20082;-29
2022/01/18 06:00:04;;;;;;;4.53;3.05;;;;;;;;;;4994343;28;20034;-29
2022/01/18 06:02:42;;;;;;;7.25;3.85;;;;;;;;;;4995239;28;20044;-30
2022/01/18 06:07:54;;;;;;;13.68;3.03;;;;;;;;;;4994993;28;20054;-25
2022/01/18 06:10:21;;;;;;;9.05;3.72;;;;;;;;;;4995252;28;20465;-29
2022/01/18 06:12:47;;;;;;;15.10;3.33;;;;;;;;;;4994913;28;20026;-25
2022/01/18 06:15:13;;;;;;;10.13;3.42;;;;;;;;;;4994949;28;20373;-26
2022/01/18 06:17:39;;;;;;;15.90;3.72;;;;;;;;;;4995068;28;20112;-27
2022/01/18 06:20:06;;;;;;;15.27;3.70;;;;;;;;;;4995059;28;20030;-25
2022/01/18 06:22:33;;;;;;;8.65;2.65;;;;;;;;;;4994622;28;20134;-26
2022/01/18 06:24:59;;;;;;;8.40;2.95;;;;;;;;;;4994740;28;20030;-25
2022/01/18 06:27:25;;;;;;;12.73;3.70;;;;;;;;;;4994673;28;20027;-25
2022/01/18 06:29:52;;;;;;;17.73;4.10;;;;;;;;;;4994771;28;20026;-27
2022/01/18 06:32:18;;;;;;;11.52;3.80;;;;;;;;;;4994549;28;20062;-28
2022/01/18 06:34:45;;;;;;;10.95;3.38;;;;;;;;;;4994667;28;20030;-26
2022/01/18 06:37:11;;;;;;;13.70;3.80;;;;;;;;;;4994604;28;20030;-25
2022/01/18 06:39:38;;;;;;;14.27;4.00;;;;;;;;;;4997437;28;20019;-28
2022/01/18 06:42:04;;;;;;;9.98;3.38;;;;;;;;;;4998334;28;20046;-25
2022/01/18 06:44:30;;;;;;;14.95;3.58;;;;;;;;;;4998206;28;20027;-25
2022/01/18 06:46:57;;;;;;;8.68;2.80;;;;;;;;;;4997159;28;20031;-25
2022/01/18 06:49:23;;;;;;;8.07;3.53;;;;;;;;;;4997977;28;20034;-30
2022/01/18 06:51:49;;;;;;;11.48;3.40;;;;;;;;;;4997857;28;20034;-28
2022/01/18 06:54:17;;;;;;;13.82;3.38;;;;;;;;;;4998304;28;20022;-25
2022/01/18 06:56:47;;;;;;;12.43;3.78;;;;;;;;;;4998067;28;20035;-28
2022/01/18 06:59:14;;;;;;;10.68;3.55;;;;;;;;;;4998042;28;20054;-27
2022/01/18 07:01:40;;;;;;;9.20;2.88;;;;;;;;;;4998238;28;20359;-27
2022/01/18 07:04:06;;;;;;;22.80;4.75;;;;;;;;;;4997667;28;20053;-25
2022/01/18 07:06:33;;;;;;;18.60;3.78;;;;;;;;;;4997649;28;20039;-27
2022/01/18 07:09:00;;;;;;;18.98;3.30;;;;;;;;;;4997730;28;20033;-30
2022/01/18 07:11:26;;;;;;;9.60;3.45;;;;;;;;;;4997768;28;20030;-32
2022/01/18 07:13:52;;;;;;;13.20;3.72;;;;;;;;;;4997620;28;20030;-27
2022/01/18 07:16:19;;;;;;;12.82;2.60;;;;;;;;;;4997968;28;20026;-29
2022/01/18 07:18:45;;;;;;;13.57;3.00;;;;;;;;;;4997555;28;20110;-28
2022/01/18 07:21:11;;;;;;;8.60;3.13;;;;;;;;;;4997563;28;20065;-26
2022/01/18 07:23:38;;;;;;;17.95;4.10;;;;;;;;;;4997416;28;20034;-25
2022/01/18 07:26:05;;;;;;;10.43;3.00;;;;;;;;;;4997796;28;20031;-26
2022/01/18 07:28:31;;;;;;;10.32;3.60;;;;;;;;;;4997225;28;20030;-25
2022/01/18 07:30:58;;;;;;;9.43;3.53;;;;;;;;;;4997628;28;20030;-27
2022/01/18 07:33:24;;;;;;;6.47;3.28;;;;;;;;;;4997580;28;20030;-27
2022/01/18 07:35:50;;;;;;;14.50;3.63;;;;;;;;;;4996365;28;20033;-29
2022/01/18 07:38:18;;;;;;;20.50;4.13;;;;;;;;;;4997274;28;20040;-25
2022/01/18 07:40:48;;;;;;;23.67;3.47;;;;;;;;;;4997282;28;20496;-24
2022/01/18 07:43:19;;;;;;;16.90;4.88;;;;;;;;;;4997184;28;20022;-26
2022/01/18 07:45:46;;;;;;;10.55;3.53;;;;;;;;;;4997210;28;20053;-27
2022/01/18 07:48:13;;;;;;;17.60;4.75;;;;;;;;;;4997035;28;20034;-29
2022/01/18 07:50:41;;;;;;;20.92;4.20;;;;;;;;;;4996020;28;20097;-27
2022/01/18 07:53:07;;;;;;;31.48;4.78;;;;;;;;;;4996951;28;20557;-25
2022/01/18 07:55:34;;;;;;;16.42;3.45;;;;;;;;;;4996957;28;20041;-24
2022/01/18 07:58:00;;;;;;;24.38;3.40;;;;;;;;;;4996983;28;20061;-28
2022/01/18 08:00:28;;;;;;;17.17;3.15;;;;;;;;;;4997003;28;20037;-27
2022/01/18 08:02:54;;;;;;;23.65;3.78;;;;;;;;;;4995828;28;20108;-31
2022/01/18 08:05:21;;;;;;;17.52;3.40;;;;;;;;;;4995516;28;20046;-28
2022/01/18 08:07:47;;;;;;;12.60;3.72;;;;;;;;;;4996437;28;20030;-28
2022/01/18 08:10:17;;;;;;;21.52;3.90;;;;;;;;;;4996695;28;20026;-24
2022/01/18 08:12:43;;;;;;;17.13;3.28;;;;;;;;;;4996390;28;20425;-28
2022/01/18 08:15:20;;;;;;;15.43;3.40;;;;;;;;;;4996824;28;20022;-28
2022/01/18 08:17:48;;;;;;;14.88;4.07;;;;;;;;;;4996798;28;20030;-26
2022/01/18 08:20:15;;;;;;;19.48;3.38;;;;;;;;;;4996712;28;20035;-27
2022/01/18 08:22:43;;;;;;;15.48;3.53;;;;;;;;;;4996370;28;20034;-28
2022/01/18 08:25:10;;;;;;;12.10;3.80;;;;;;;;;;4996643;28;20453;-32
2022/01/18 08:27:36;;;;;;;17.55;3.47;;;;;;;;;;4996512;28;20398;-27
2022/01/18 08:30:04;;;;;;;13.40;2.65;;;;;;;;;;4995694;28;20037;-28
2022/01/18 08:32:30;;;;;;;9.98;3.78;;;;;;;;;;4996288;28;20106;-25
2022/01/18 08:34:56;;;;;;;10.52;3.30;;;;;;;;;;4996162;28;20110;-29
2022/01/18 08:37:23;;;;;;;12.00;2.97;;;;;;;;;;4996227;28;20027;-30
2022/01/18 08:39:49;;;;;;;15.63;3.17;;;;;;;;;;4996486;28;20050;-32
2022/01/18 08:42:16;;;;;;;9.38;3.50;;;;;;;;;;4996389;28;20106;-26
2022/01/18 08:44:43;;;;;;;13.38;3.40;;;;;;;;;;4996102;28;20042;-27
2022/01/18 08:47:12;;;;;;;10.23;2.92;;;;;;;;;;4996244;28;20034;-27
2022/01/18 08:49:38;;;;;;;17.38;3.47;;;;;;;;;;4994970;28;20058;-27
2022/01/18 08:52:05;;;;;;;28.90;4.75;;;;;;;;;;4995922;28;20023;-29
2022/01/18 08:54:32;;;;;;;29.92;5.70;;;;;;;;;;4995901;28;20037;-26
2022/01/18 08:56:59;;;;;;;47.00;7.43;;;;;;;;;;4994967;28;20026;-30
2022/01/18 08:59:25;;;;;;;26.02;5.25;;;;;;;;;;4995970;28;20042;-27
2022/01/18 09:01:51;;;;;;;24.15;5.15;;;;;;;;;;4995229;28;20045;-25
2022/01/18 09:04:19;;;;;;;13.32;3.92;;;;;;;;;;4995345;28;20050;-30
2022/01/18 09:06:48;;;;;;;18.48;4.55;;;;;;;;;;4995505;28;20056;-26
2022/01/18 09:09:16;;;;;;;22.20;4.65;;;;;;;;;;4995323;28;20042;-32
2022/01/18 09:11:42;;;;;;;22.55;4.10;;;;;;;;;;4995505;28;20038;-26
2022/01/18 09:14:09;;;;;;;20.25;3.70;;;;;;;;;;4994275;28;20023;-28
2022/01/18 09:16:35;;;;;;;15.15;5.20;;;;;;;;;;4995174;28;20359;-27
2022/01/18 09:19:01;;;;;;;22.42;4.22;;;;;;;;;;4995141;28;20101;-26
2022/01/18 09:21:27;;;;;;;12.05;3.65;;;;;;;;;;4995428;28;20418;-30
2022/01/18 09:23:54;;;;;;;8.02;3.05;;;;;;;;;;4995254;28;20088;-27
2022/01/18 09:26:21;;;;;;;13.52;3.47;;;;;;;;;;4994412;28;20031;-27
2022/01/18 09:28:47;;;;;;;14.25;3.42;;;;;;;;;;4995107;28;20163;-32
2022/01/18 09:31:13;;;;;;;13.75;3.15;;;;;;;;;;4994208;28;20030;-25
2022/01/18 09:33:39;;;;;;;14.85;4.05;;;;;;;;;;4994054;28;20025;-26
2022/01/18 09:36:06;;;;;;;15.68;4.43;;;;;;;;;;4995054;28;20450;-26
2022/01/18 09:38:32;;;;;;;17.98;4.13;;;;;;;;;;4995122;28;20030;-27
2022/01/18 09:41:00;;;;;;;12.63;4.00;;;;;;;;;;4995382;28;20485;-32
2022/01/18 09:43:28;;;;;;;13.40;3.47;;;;;;;;;;4994925;28;20034;-25
2022/01/18 09:45:57;;;;;;;12.60;3.20;;;;;;;;;;4993974;28;20030;-25
2022/01/18 09:48:23;;;;;;;13.30;3.65;;;;;;;;;;4994661;28;20118;-27
2022/01/18 09:50:50;;;;;;;16.73;3.85;;;;;;;;;;4993925;28;20089;-25
2022/01/18 09:53:16;;;;;;;14.10;3.20;;;;;;;;;;4993665;28;20027;-30
2022/01/18 09:55:43;;;;;;;15.57;3.50;;;;;;;;;;4993920;28;20066;-32
2022/01/18 09:58:10;;;;;;;12.63;3.53;;;;;;;;;;4993937;28;20030;-25
2022/01/18 10:00:38;;;;;;;18.83;4.05;;;;;;;;;;4994871;28;20030;-26
2022/01/18 10:03:09;;;;;;;21.70;3.53;;;;;;;;;;4995124;28;20030;-26
2022/01/18 10:05:37;;;;;;;21.90;3.67;;;;;;;;;;4993989;28;20038;-31
2022/01/18 10:08:15;;;;;;;18.38;3.92;;;;;;;;;;4994711;28;20034;-26
2022/01/18 10:10:43;;;;;;;20.95;5.40;;;;;;;;;;4995228;28;20523;-27
2022/01/18 10:13:15;;;;;;;17.60;3.90;;;;;;;;;;4996503;28;20026;-27
2022/01/18 10:15:57;;;;;;;19.70;4.78;;;;;;;;;;4999105;28;20031;-25
2022/01/18 10:18:31;;;;;;;22.00;3.35;;;;;;;;;;4999141;28;20342;-28
2022/01/18 10:20:59;;;;;;;23.80;4.93;;;;;;;;;;4999007;28;20050;-27
2022/01/18 10:23:25;;;;;;;13.32;4.28;;;;;;;;;;4998670;28;20027;-27
2022/01/18 10:25:52;;;;;;;12.20;3.53;;;;;;;;;;4998456;28;20033;-27
2022/01/18 10:28:32;;;;;;;16.38;4.18;;;;;;;;;;4997547;28;20081;-27
2022/01/18 10:31:04;;;;;;;15.80;4.85;;;;;;;;;;4998919;28;20036;-26
2022/01/18 10:33:36;;;;;;;;;;;;;;;;;;4998926;28;20045;-27
2022/01/18 10:36:08;;;;;;;13.68;4.05;;;;;;;;;;4996999;28;20348;-25
2022/01/18 10:38:34;;;;;;;10.43;2.80;;;;;;;;;;4998233;28;20101;-29
2022/01/18 10:41:19;;;;;;;23.33;5.07;;;;;;;;;;4998217;28;20361;-27
2022/01/18 10:44:02;;;;;;;14.63;3.05;;;;;;;;;;4998128;28;20053;-25
2022/01/18 10:46:33;;;;;;;13.93;5.05;;;;;;;;;;4998536;28;20045;-27
2022/01/18 10:48:59;;;;;;;8.43;2.92;;;;;;;;;;4998392;28;20117;-25
2022/01/18 10:51:27;;;;;;;14.18;4.22;;;;;;;;;;4998080;28;20030;-32
2022/01/18 10:54:00;;;;;;;13.23;2.55;;;;;;;;;;4998260;28;20038;-25
2022/01/18 10:56:36;;;;;;;15.73;5.38;;;;;;;;;;4998021;28;20022;-25
2022/01/18 10:59:03;;;;;;;10.77;5.18;;;;;;;;;;4997786;28;20086;-25
2022/01/18 11:01:31;;;;;;;27.98;6.03;;;;;;;;;;4997724;28;20057;-25
2022/01/18 11:04:11;;;;;;;29.17;5.32;;;;;;;;;;4997730;28;20497;-25
2022/01/18 11:06:39;;;;;;;22.65;3.92;;;;;;;;;;4997835;28;20058;-26
2022/01/18 11:09:12;;;;;;;20.65;4.43;;;;;;;;;;4997592;28;20038;-31
2022/01/18 11:11:42;;;;;;;18.33;4.40;;;;;;;;;;4996663;28;20037;-26
2022/01/18 11:14:09;;;;;;;17.00;4.10;;;;;;;;;;4997724;28;20097;-30
2022/01/18 11:16:41;;;;;;;17.50;3.40;;;;;;;;;;4997611;28;20027;-29
2022/01/18 11:19:17;;;;;;;12.05;4.00;;;;;;;;;;4997817;28;20054;-28
2022/01/18 11:21:44;;;;;;;16.65;3.75;;;;;;;;;;4997885;28;20514;-27
2022/01/18 11:24:10;;;;;;;22.13;5.68;;;;;;;;;;4997368;28;20030;-28
2022/01/18 11:26:38;;;;;;;18.42;5.20;;;;;;;;;;4997292;28;20101;-25
2022/01/18 11:29:06;;;;;;;21.27;3.30;;;;;;;;;;4997573;28;20030;-28
2022/01/18 11:31:32;;;;;;;18.67;4.03;;;;;;;;;;4997406;28;20122;-25
2022/01/18 11:34:00;;;;;;;15.63;3.75;;;;;;;;;;4997365;28;20366;-26
2022/01/18 11:36:33;;;;;;;20.40;4.60;;;;;;;;;;4997374;28;20026;-24
2022/01/18 11:39:06;;;;;;;20.60;5.05;;;;;;;;;;4997313;28;20030;-24
2022/01/18 11:41:35;;;;;;;17.60;4.40;;;;;;;;;;4997315;28;20426;-31
2022/01/18 11:44:19;;;;;;;22.88;3.60;;;;;;;;;;4997738;28;20034;-28
2022/01/18 11:46:50;;;;;;;17.98;3.75;;;;;;;;;;4997046;28;20062;-26
2022/01/18 11:49:16;;;;;;;10.85;3.30;;;;;;;;;;4997173;28;20113;-27
2022/01/18 11:51:53;;;;;;;13.48;4.75;;;;;;;;;;4996973;28;20129;-27
2022/01/18 11:54:55;;;;;;;27.73;3.75;;;;;;;;;;4997264;28;20034;-28
2022/01/18 11:57:22;;;;;;;18.35;3.85;;;;;;;;;;4996240;28;20022;-25
2022/01/18 11:59:53;;;;;;;19.02;4.82;;;;;;;;;;4997138;28;20026;-27
2022/01/18 12:02:30;;;;;;;29.80;5.45;;;;;;;;;;4997132;28;20402;-25
2022/01/18 12:05:03;;;;;;;16.90;3.92;;;;;;;;;;4996770;28;20571;-26
2022/01/18 12:07:39;;;;;;;22.48;5.00;;;;;;;;;;4996798;28;20034;-28
2022/01/18 12:10:32;;;;;;;17.70;3.90;;;;;;;;;;4997053;28;20040;-29
2022/01/18 12:13:04;;;;;;;18.60;3.95;;;;;;;;;;4995994;28;20053;-26
2022/01/18 12:15:33;;;;;;;14.15;3.30;;;;;;;;;;4996796;28;20053;-25
2022/01/18 12:18:01;;;;;;;22.23;5.60;;;;;;;;;;4996940;28;20037;-26
2022/01/18 12:20:34;;;;;;;19.55;4.28;;;;;;;;;;4996692;28;20030;-25
2022/01/18 12:23:08;;;;;;;22.48;4.88;;;;;;;;;;4996563;28;20365;-25
2022/01/18 12:26:13;;;;;;;21.30;4.25;;;;;;;;;;4996548;28;20034;-29
2022/01/18 12:39:51;;;;;;;15.68;3.25;;;;;;;;;;4996067;28;20054;-25
2022/01/18 12:45:08;;;;;;;23.02;4.60;;;;;;;;;;4965720;28;20030;-27
2022/01/18 12:47:36;;;;;;;19.55;4.80;;;;;;;;;;4994754;28;20029;-29
2022/01/18 12:50:07;;;;;;;16.15;3.85;;;;;;;;;;4994664;28;20118;-27
2022/01/18 12:52:46;;;;;;;25.10;4.88;;;;;;;;;;4995528;28;20092;-28
2022/01/18 12:55:30;;;;;;;28.38;6.22;;;;;;;;;;4995612;28;20104;-26
2022/01/18 12:58:15;;;;;;;18.15;3.65;;;;;;;;;;4995801;28;20036;-26
2022/01/18 13:00:44;;;;;;;25.67;4.53;;;;;;;;;;4995574;28;20080;-25
2022/01/18 13:03:15;;;;;;;40.33;3.65;;;;;;;;;;4995474;28;20022;-25
2022/01/18 13:05:43;;;;;;;21.90;4.10;;;;;;;;;;4996010;28;20030;-28
2022/01/18 13:08:10;;;;;;;17.75;4.50;;;;;;;;;;4995596;28;20097;-28
2022/01/18 13:10:39;;;;;;;20.80;4.40;;;;;;;;;;4995867;28;20019;-29
2022/01/18 13:13:06;;;;;;;19.48;4.45;;;;;;;;;;4995989;28;20125;-25
2022/01/18 13:15:47;;;;;;;16.27;3.40;;;;;;;;;;4995469;28;20058;-27
2022/01/18 13:23:55;;;;;;;30.88;8.50;;;;;;;;;;4995326;28;20494;-30
2022/01/18 13:26:28;;;;;;;13.40;4.38;;;;;;;;;;4995378;28;20058;-25
2022/01/18 13:28:55;;;;;;;29.65;5.47;;;;;;;;;;4995173;28;20117;-27
2022/01/18 13:31:24;;;;;;;22.10;4.10;;;;;;;;;;4995395;28;20029;-30
2022/01/18 13:33:57;;;;;;;16.10;3.50;;;;;;;;;;4995191;28;20399;-26
2022/01/18 13:36:25;;;;;;;20.15;4.20;;;;;;;;;;4995176;28;20022;-25
2022/01/18 13:38:51;;;;;;;15.93;3.45;;;;;;;;;;4995256;28;20081;-26
2022/01/18 13:41:18;;;;;;;21.90;3.63;;;;;;;;;;4993958;28;20030;-27
2022/01/18 13:43:46;;;;;;;16.08;3.25;;;;;;;;;;4994973;28;20110;-29
2022/01/18 13:46:22;;;;;;;17.50;4.97;;;;;;;;;;4995250;28;20035;-26
2022/01/18 13:48:48;;;;;;;30.80;5.65;;;;;;;;;;4994355;28;20030;-25
2022/01/18 13:51:15;;;;;;;23.88;3.88;;;;;;;;;;4994800;28;20031;-27
2022/01/18 13:53:42;;;;;;;15.75;4.30;;;;;;;;;;4994808;28;20034;-29
2022/01/18 13:56:12;;;;;;;34.95;6.95;;;;;;;;;;4994710;28;20350;-27
2022/01/18 13:58:42;;;;;;;23.73;5.47;;;;;;;;;;4993900;28;20057;-27
2022/01/18 14:01:13;;;;;;;17.90;3.83;;;;;;;;;;4995119;28;20487;-27
2022/01/18 14:03:43;;;;;;;22.17;3.58;;;;;;;;;;4994862;28;20108;-29
2022/01/18 14:06:11;;;;;;;12.45;3.30;;;;;;;;;;4995601;28;20030;-25
2022/01/18 14:08:50;;;;;;;22.63;4.30;;;;;;;;;;4994773;28;20038;-27
2022/01/18 14:11:21;;;;;;;17.05;3.85;;;;;;;;;;4995027;28;20523;-25
2022/01/18 14:13:47;;;;;;;26.65;6.30;;;;;;;;;;4993664;28;20429;-27
2022/01/18 14:16:29;;;;;;;29.50;4.90;;;;;;;;;;4994584;28;20077;-25
2022/01/18 14:18:55;;;;;;;;;;;;;;;;;;4995180;28;20031;-28
2022/01/18 14:21:25;;;;;;;22.98;4.78;;;;;;;;;;4994851;28;19910;-28
2022/01/18 14:24:06;;;;;;;25.95;5.00;;;;;;;;;;4994609;28;20026;-27
2022/01/18 14:26:32;;;;;;;;;;;;;;;;;;4995341;28;20031;-29
2022/01/18 14:29:01;;;;;;;28.27;5.50;;;;;;;;;;4994634;28;20008;-27
2022/01/18 14:31:27;;;;;;;40.67;5.63;;;;;;;;;;4994830;28;20390;-25
2022/01/18 14:33:54;;;;;;;25.92;5.75;;;;;;;;;;4994498;28;20450;-31
2022/01/18 14:36:20;;;;;;;20.73;4.90;;;;;;;;;;4994551;28;20029;-26
2022/01/18 14:38:46;;;;;;;40.70;5.63;;;;;;;;;;4994618;28;20105;-26
2022/01/18 14:41:19;;;;;;;37.70;7.95;;;;;;;;;;4994336;28;20034;-24
2022/01/18 14:43:46;;;;;;;25.45;5.82;;;;;;;;;;4994286;28;20435;-28
2022/01/18 14:46:25;;;;;;;30.08;4.22;;;;;;;;;;4994708;28;20030;-29
2022/01/18 14:48:54;;;;;;;24.30;3.95;;;;;;;;;;4993503;28;20117;-26
2022/01/18 14:51:21;;;;;;;20.17;4.25;;;;;;;;;;4994811;28;20369;-26
2022/01/18 14:53:49;;;;;;;31.08;3.33;;;;;;;;;;4994764;28;20037;-25
2022/01/18 14:56:15;;;;;;;20.58;5.65;;;;;;;;;;4994425;28;20027;-26
2022/01/18 14:58:41;;;;;;;21.83;4.28;;;;;;;;;;4995056;28;20098;-27
2022/01/18 15:01:07;;;;;;;29.27;4.68;;;;;;;;;;4997108;28;20042;-28
2022/01/18 15:03:34;;;;;;;35.40;5.55;;;;;;;;;;4997854;28;20373;-28
2022/01/18 15:06:00;;;;;;;43.90;7.28;;;;;;;;;;4998113;28;20030;-26
2022/01/18 15:08:26;;;;;;;21.10;4.47;;;;;;;;;;4998104;28;20034;-24
2022/01/18 15:10:52;;;;;;;21.35;3.58;;;;;;;;;;4997881;28;20430;-25
2022/01/18 15:13:18;;;;;;;27.45;5.63;;;;;;;;;;4997845;28;20046;-23
2022/01/18 15:15:44;;;;;;;24.48;4.28;;;;;;;;;;4997765;28;20026;-28
2022/01/18 15:18:11;;;;;;;28.02;5.00;;;;;;;;;;4997724;28;20061;-27
2022/01/18 15:20:38;;;;;;;24.10;6.80;;;;;;;;;;4997945;28;20034;-23
2022/01/18 15:23:05;;;;;;;23.38;4.20;;;;;;;;;;4997572;28;20058;-26
2022/01/18 15:25:31;;;;;;;28.15;5.47;;;;;;;;;;4996623;28;20136;-30
2022/01/18 15:27:57;;;;;;;39.78;6.43;;;;;;;;;;4997381;28;20117;-26
2022/01/18 15:30:25;;;;;;;26.65;5.28;;;;;;;;;;4996378;28;20019;-27
2022/01/18 15:32:54;;;;;;;29.38;6.82;;;;;;;;;;4997259;28;20050;-25
2022/01/18 15:35:20;;;;;;;39.75;5.75;;;;;;;;;;4997250;28;20037;-24
2022/01/18 15:37:47;;;;;;;25.27;5.60;;;;;;;;;;4997341;28;20026;-23
2022/01/18 15:40:13;;;;;;;39.50;5.20;;;;;;;;;;4997232;28;20365;-25
2022/01/18 15:42:40;;;;;;;31.83;5.97;;;;;;;;;;4996177;28;20462;-25
2022/01/18 15:45:07;;;;;;;20.55;4.35;;;;;;;;;;4997258;28;20037;-26
2022/01/18 15:47:33;;;;;;;33.38;7.18;;;;;;;;;;4997114;28;20030;-27
2022/01/18 15:50:00;;;;;;;34.85;5.43;;;;;;;;;;4997451;28;20420;-23
2022/01/18 15:52:26;;;;;;;30.75;5.53;;;;;;;;;;4997513;28;20034;-23
2022/01/18 15:54:53;;;;;;;32.08;5.25;;;;;;;;;;4997434;28;20026;-27
2022/01/18 15:57:20;;;;;;;55.95;8.13;;;;;;;;;;4997152;28;20035;-29
2022/01/18 15:59:47;;;;;;;44.03;5.57;;;;;;;;;;4997324;28;20053;-26
2022/01/18 16:02:14;;;;;;;29.77;5.63;;;;;;;;;;4996893;28;20034;-31
2022/01/18 16:04:40;;;;;;;29.65;5.32;;;;;;;;;;4996635;28;20043;-27
2022/01/18 16:07:08;;;;;;;31.85;5.75;;;;;;;;;;4997135;28;20022;-25
2022/01/18 16:09:34;;;;;;;25.20;4.47;;;;;;;;;;4996542;28;20108;-28
2022/01/18 16:12:01;;;;;;;25.80;4.60;;;;;;;;;;4996034;28;20026;-29
2022/01/18 16:14:27;;;;;;;21.92;3.95;;;;;;;;;;4996022;28;20109;-27
2022/01/18 16:16:53;;;;;;;29.27;5.80;;;;;;;;;;4996624;28;20026;-24